sensor_id;sensor_type;location;lat;lon;timestamp;P1;durP1;ratioP1;P2;durP2;ratioP2
38567;SDS011;24338;48.280;10.970;2023-05-17T00:02:06;7.22;;;3.67;;
38567;SDS011;24338;48.280;10.970;2023-05-17T00:04:33;6.85;;;2.92;;
38567;SDS011;24338;48.280;10.970;2023-05-17T00:07:00;12.35;;;3.80;;
38567;SDS011;24338;48.280;10.970;2023-05-17T00:09:27;6.00;;;3.22;;
38567;SDS011;24338;48.280;10.970;2023-05-17T00:11:53;8.60;;;3.63;;
38567;SDS011;24338;48.280;10.970;2023-05-17T00:14:23;7.43;;;3.33;;
38567;SDS011;24338;48.280;10.970;2023-05-17T00:16:50;6.25;;;3.33;;
38567;SDS011;24338;48.280;10.970;2023-05-17T00:19:17;9.68;;;3.67;;
38567;SDS011;24338;48.280;10.970;2023-05-17T00:21:45;8.10;;;2.97;;
38567;SDS011;24338;48.280;10.970;2023-05-17T00:24:11;7.43;;;3.20;;
38567;SDS011;24338;48.280;10.970;2023-05-17T00:26:38;6.97;;;3.03;;
38567;SDS011;24338;48.280;10.970;2023-05-17T00:29:05;9.70;;;3.67;;
38567;SDS011;24338;48.280;10.970;2023-05-17T00:31:32;6.25;;;3.53;;
38567;SDS011;24338;48.280;10.970;2023-05-17T00:33:59;8.23;;;3.28;;
38567;SDS011;24338;48.280;10.970;2023-05-17T00:36:26;7.78;;;3.83;;
38567;SDS011;24338;48.280;10.970;2023-05-17T00:38:53;11.23;;;4.07;;
38567;SDS011;24338;48.280;10.970;2023-05-17T00:41:20;10.20;;;3.45;;
38567;SDS011;24338;48.280;10.970;2023-05-17T00:43:46;8.73;;;3.63;;
38567;SDS011;24338;48.280;10.970;2023-05-17T00:46:13;7.72;;;3.35;;
38567;SDS011;24338;48.280;10.970;2023-05-17T00:48:44;6.53;;;3.50;;
38567;SDS011;24338;48.280;10.970;2023-05-17T00:51:11;10.70;;;3.65;;
38567;SDS011;24338;48.280;10.970;2023-05-17T00:53:39;8.73;;;3.33;;
38567;SDS011;24338;48.280;10.970;2023-05-17T00:56:06;8.50;;;3.22;;
38567;SDS011;24338;48.280;10.970;2023-05-17T00:58:34;6.45;;;2.83;;
38567;SDS011;24338;48.280;10.970;2023-05-17T01:03:32;7.32;;;2.78;;
38567;SDS011;24338;48.280;10.970;2023-05-17T01:05:59;5.22;;;2.25;;
38567;SDS011;24338;48.280;10.970;2023-05-17T01:08:27;5.60;;;2.78;;
38567;SDS011;24338;48.280;10.970;2023-05-17T01:13:55;8.27;;;3.25;;
38567;SDS011;24338;48.280;10.970;2023-05-17T01:19:06;8.93;;;2.60;;
38567;SDS011;24338;48.280;10.970;2023-05-17T01:22:14;7.40;;;2.58;;
38567;SDS011;24338;48.280;10.970;2023-05-17T01:27:38;6.82;;;1.95;;
38567;SDS011;24338;48.280;10.970;2023-05-17T01:30:08;4.03;;;1.85;;
38567;SDS011;24338;48.280;10.970;2023-05-17T01:32:41;5.93;;;1.80;;
38567;SDS011;24338;48.280;10.970;2023-05-17T01:35:09;6.63;;;2.22;;
38567;SDS011;24338;48.280;10.970;2023-05-17T01:37:37;5.65;;;2.13;;
38567;SDS011;24338;48.280;10.970;2023-05-17T01:40:05;7.50;;;1.92;;
38567;SDS011;24338;48.280;10.970;2023-05-17T01:42:36;7.60;;;2.15;;
38567;SDS011;24338;48.280;10.970;2023-05-17T01:47:42;4.13;;;1.77;;
38567;SDS011;24338;48.280;10.970;2023-05-17T01:50:23;5.88;;;1.60;;
38567;SDS011;24338;48.280;10.970;2023-05-17T01:52:54;7.65;;;1.70;;
38567;SDS011;24338;48.280;10.970;2023-05-17T01:55:33;4.45;;;1.60;;
38567;SDS011;24338;48.280;10.970;2023-05-17T01:58:05;6.68;;;1.48;;
38567;SDS011;24338;48.280;10.970;2023-05-17T02:00:33;4.43;;;1.67;;
38567;SDS011;24338;48.280;10.970;2023-05-17T02:03:01;5.22;;;1.98;;
38567;SDS011;24338;48.280;10.970;2023-05-17T02:05:28;4.63;;;1.45;;
38567;SDS011;24338;48.280;10.970;2023-05-17T02:07:56;5.68;;;1.67;;
38567;SDS011;24338;48.280;10.970;2023-05-17T02:10:23;5.55;;;1.52;;
38567;SDS011;24338;48.280;10.970;2023-05-17T02:12:50;6.93;;;1.77;;
38567;SDS011;24338;48.280;10.970;2023-05-17T02:15:16;5.05;;;1.58;;
38567;SDS011;24338;48.280;10.970;2023-05-17T02:17:43;3.42;;;1.35;;
38567;SDS011;24338;48.280;10.970;2023-05-17T02:20:11;5.50;;;1.30;;
38567;SDS011;24338;48.280;10.970;2023-05-17T02:22:38;9.73;;;1.50;;
38567;SDS011;24338;48.280;10.970;2023-05-17T02:25:05;5.30;;;1.73;;
38567;SDS011;24338;48.280;10.970;2023-05-17T02:27:33;5.35;;;1.60;;
38567;SDS011;24338;48.280;10.970;2023-05-17T02:30:00;5.90;;;1.42;;
38567;SDS011;24338;48.280;10.970;2023-05-17T02:32:27;8.07;;;1.17;;
38567;SDS011;24338;48.280;10.970;2023-05-17T02:34:54;4.97;;;1.67;;
38567;SDS011;24338;48.280;10.970;2023-05-17T02:37:21;6.00;;;1.38;;
38567;SDS011;24338;48.280;10.970;2023-05-17T02:39:48;3.45;;;1.27;;
38567;SDS011;24338;48.280;10.970;2023-05-17T02:42:15;5.65;;;1.55;;
38567;SDS011;24338;48.280;10.970;2023-05-17T02:44:42;3.92;;;1.70;;
38567;SDS011;24338;48.280;10.970;2023-05-17T02:47:09;6.88;;;1.35;;
38567;SDS011;24338;48.280;10.970;2023-05-17T02:49:38;3.13;;;1.10;;
38567;SDS011;24338;48.280;10.970;2023-05-17T02:52:05;4.00;;;1.40;;
38567;SDS011;24338;48.280;10.970;2023-05-17T02:54:32;5.78;;;1.13;;
38567;SDS011;24338;48.280;10.970;2023-05-17T02:56:59;6.47;;;1.30;;
38567;SDS011;24338;48.280;10.970;2023-05-17T02:59:26;5.78;;;1.40;;
38567;SDS011;24338;48.280;10.970;2023-05-17T03:01:53;5.60;;;1.33;;
38567;SDS011;24338;48.280;10.970;2023-05-17T03:04:20;2.33;;;1.02;;
38567;SDS011;24338;48.280;10.970;2023-05-17T03:06:47;4.30;;;2.13;;
38567;SDS011;24338;48.280;10.970;2023-05-17T03:09:16;7.50;;;1.02;;
38567;SDS011;24338;48.280;10.970;2023-05-17T03:11:43;3.80;;;1.20;;
38567;SDS011;24338;48.280;10.970;2023-05-17T03:14:10;3.55;;;1.10;;
38567;SDS011;24338;48.280;10.970;2023-05-17T03:16:37;4.78;;;1.00;;
38567;SDS011;24338;48.280;10.970;2023-05-17T03:19:04;4.03;;;1.02;;
38567;SDS011;24338;48.280;10.970;2023-05-17T03:21:32;5.40;;;1.13;;
38567;SDS011;24338;48.280;10.970;2023-05-17T03:23:58;4.43;;;1.17;;
38567;SDS011;24338;48.280;10.970;2023-05-17T03:26:25;6.57;;;1.00;;
38567;SDS011;24338;48.280;10.970;2023-05-17T03:28:52;2.80;;;0.90;;
38567;SDS011;24338;48.280;10.970;2023-05-17T03:31:19;6.72;;;1.20;;
38567;SDS011;24338;48.280;10.970;2023-05-17T03:33:46;5.45;;;1.00;;
38567;SDS011;24338;48.280;10.970;2023-05-17T03:36:14;5.55;;;1.27;;
38567;SDS011;24338;48.280;10.970;2023-05-17T03:38:41;2.72;;;0.82;;
38567;SDS011;24338;48.280;10.970;2023-05-17T03:41:08;4.28;;;1.30;;
38567;SDS011;24338;48.280;10.970;2023-05-17T03:43:38;3.03;;;0.77;;
38567;SDS011;24338;48.280;10.970;2023-05-17T03:46:05;6.85;;;1.10;;
38567;SDS011;24338;48.280;10.970;2023-05-17T03:48:32;4.88;;;0.68;;
38567;SDS011;24338;48.280;10.970;2023-05-17T03:51:01;4.75;;;1.33;;
38567;SDS011;24338;48.280;10.970;2023-05-17T03:53:28;4.47;;;1.10;;
38567;SDS011;24338;48.280;10.970;2023-05-17T03:55:55;3.30;;;0.80;;
38567;SDS011;24338;48.280;10.970;2023-05-17T03:58:22;5.55;;;1.10;;
38567;SDS011;24338;48.280;10.970;2023-05-17T04:00:49;4.78;;;1.00;;
38567;SDS011;24338;48.280;10.970;2023-05-17T04:03:18;5.93;;;0.90;;
38567;SDS011;24338;48.280;10.970;2023-05-17T04:05:45;6.60;;;1.10;;
38567;SDS011;24338;48.280;10.970;2023-05-17T04:08:12;4.68;;;1.10;;
38567;SDS011;24338;48.280;10.970;2023-05-17T04:10:39;6.22;;;0.77;;
38567;SDS011;24338;48.280;10.970;2023-05-17T04:13:07;3.33;;;1.40;;
38567;SDS011;24338;48.280;10.970;2023-05-17T04:15:35;5.43;;;1.48;;
38567;SDS011;24338;48.280;10.970;2023-05-17T04:18:02;3.75;;;1.52;;
38567;SDS011;24338;48.280;10.970;2023-05-17T04:20:29;2.97;;;0.95;;
38567;SDS011;24338;48.280;10.970;2023-05-17T04:22:56;7.45;;;2.33;;
38567;SDS011;24338;48.280;10.970;2023-05-17T04:25:23;6.88;;;3.15;;
38567;SDS011;24338;48.280;10.970;2023-05-17T04:27:50;6.60;;;1.90;;
38567;SDS011;24338;48.280;10.970;2023-05-17T04:30:17;5.40;;;1.05;;
38567;SDS011;24338;48.280;10.970;2023-05-17T04:32:46;2.00;;;1.10;;
38567;SDS011;24338;48.280;10.970;2023-05-17T04:35:15;6.60;;;0.73;;
38567;SDS011;24338;48.280;10.970;2023-05-17T04:37:42;4.32;;;1.00;;
38567;SDS011;24338;48.280;10.970;2023-05-17T04:40:09;8.48;;;1.10;;
38567;SDS011;24338;48.280;10.970;2023-05-17T04:42:38;6.35;;;1.50;;
38567;SDS011;24338;48.280;10.970;2023-05-17T04:45:05;6.63;;;1.52;;
38567;SDS011;24338;48.280;10.970;2023-05-17T04:47:32;7.25;;;1.50;;
38567;SDS011;24338;48.280;10.970;2023-05-17T04:49:59;4.43;;;1.27;;
38567;SDS011;24338;48.280;10.970;2023-05-17T04:52:28;3.72;;;1.00;;
38567;SDS011;24338;48.280;10.970;2023-05-17T04:54:56;6.75;;;1.10;;
38567;SDS011;24338;48.280;10.970;2023-05-17T04:57:23;7.07;;;1.17;;
38567;SDS011;24338;48.280;10.970;2023-05-17T04:59:50;6.10;;;1.20;;
38567;SDS011;24338;48.280;10.970;2023-05-17T05:02:17;3.42;;;0.98;;
38567;SDS011;24338;48.280;10.970;2023-05-17T05:04:44;4.00;;;1.00;;
38567;SDS011;24338;48.280;10.970;2023-05-17T05:07:10;2.60;;;0.98;;
38567;SDS011;24338;48.280;10.970;2023-05-17T05:09:37;2.47;;;0.80;;
38567;SDS011;24338;48.280;10.970;2023-05-17T05:12:07;4.80;;;0.93;;
38567;SDS011;24338;48.280;10.970;2023-05-17T05:14:34;3.97;;;1.08;;
38567;SDS011;24338;48.280;10.970;2023-05-17T05:17:04;3.38;;;0.73;;
38567;SDS011;24338;48.280;10.970;2023-05-17T05:19:31;4.00;;;1.30;;
38567;SDS011;24338;48.280;10.970;2023-05-17T05:21:58;3.05;;;0.98;;
38567;SDS011;24338;48.280;10.970;2023-05-17T05:24:25;3.28;;;1.35;;
38567;SDS011;24338;48.280;10.970;2023-05-17T05:26:52;6.80;;;2.08;;
38567;SDS011;24338;48.280;10.970;2023-05-17T05:29:19;6.63;;;1.23;;
38567;SDS011;24338;48.280;10.970;2023-05-17T05:31:46;9.13;;;1.73;;
38567;SDS011;24338;48.280;10.970;2023-05-17T05:34:13;4.72;;;0.70;;
38567;SDS011;24338;48.280;10.970;2023-05-17T05:36:43;6.43;;;1.30;;
38567;SDS011;24338;48.280;10.970;2023-05-17T05:39:10;4.18;;;1.00;;
38567;SDS011;24338;48.280;10.970;2023-05-17T05:41:37;4.97;;;0.98;;
38567;SDS011;24338;48.280;10.970;2023-05-17T05:44:07;6.88;;;1.05;;
38567;SDS011;24338;48.280;10.970;2023-05-17T05:46:34;3.95;;;1.20;;
38567;SDS011;24338;48.280;10.970;2023-05-17T05:49:01;8.25;;;1.30;;
38567;SDS011;24338;48.280;10.970;2023-05-17T05:51:28;4.03;;;1.02;;
38567;SDS011;24338;48.280;10.970;2023-05-17T05:53:55;4.90;;;1.13;;
38567;SDS011;24338;48.280;10.970;2023-05-17T05:56:24;5.07;;;1.33;;
38567;SDS011;24338;48.280;10.970;2023-05-17T05:58:53;8.38;;;0.95;;
38567;SDS011;24338;48.280;10.970;2023-05-17T06:01:21;3.75;;;1.17;;
38567;SDS011;24338;48.280;10.970;2023-05-17T06:03:51;3.20;;;0.82;;
38567;SDS011;24338;48.280;10.970;2023-05-17T06:06:18;4.25;;;1.27;;
38567;SDS011;24338;48.280;10.970;2023-05-17T06:08:45;4.30;;;1.25;;
38567;SDS011;24338;48.280;10.970;2023-05-17T06:11:12;3.10;;;0.70;;
38567;SDS011;24338;48.280;10.970;2023-05-17T06:13:39;4.35;;;0.90;;
38567;SDS011;24338;48.280;10.970;2023-05-17T06:16:06;7.88;;;0.77;;
38567;SDS011;24338;48.280;10.970;2023-05-17T06:18:33;7.63;;;1.13;;
38567;SDS011;24338;48.280;10.970;2023-05-17T06:21:02;8.02;;;0.98;;
38567;SDS011;24338;48.280;10.970;2023-05-17T06:23:29;6.72;;;1.17;;
38567;SDS011;24338;48.280;10.970;2023-05-17T06:25:56;4.78;;;1.35;;
38567;SDS011;24338;48.280;10.970;2023-05-17T06:28:23;4.38;;;0.77;;
38567;SDS011;24338;48.280;10.970;2023-05-17T06:30:50;3.00;;;0.73;;
38567;SDS011;24338;48.280;10.970;2023-05-17T06:33:17;3.95;;;0.80;;
38567;SDS011;24338;48.280;10.970;2023-05-17T06:35:44;6.43;;;1.73;;
38567;SDS011;24338;48.280;10.970;2023-05-17T06:38:22;9.13;;;1.45;;
38567;SDS011;24338;48.280;10.970;2023-05-17T06:40:54;6.88;;;1.63;;
38567;SDS011;24338;48.280;10.970;2023-05-17T06:43:26;9.85;;;1.42;;
38567;SDS011;24338;48.280;10.970;2023-05-17T06:45:53;4.65;;;0.85;;
38567;SDS011;24338;48.280;10.970;2023-05-17T06:48:20;4.80;;;0.98;;
38567;SDS011;24338;48.280;10.970;2023-05-17T06:50:47;4.28;;;0.63;;
38567;SDS011;24338;48.280;10.970;2023-05-17T06:53:14;4.75;;;1.02;;
38567;SDS011;24338;48.280;10.970;2023-05-17T06:55:40;6.50;;;1.65;;
38567;SDS011;24338;48.280;10.970;2023-05-17T06:58:08;6.75;;;1.20;;
38567;SDS011;24338;48.280;10.970;2023-05-17T07:00:38;4.03;;;0.80;;
38567;SDS011;24338;48.280;10.970;2023-05-17T07:03:05;3.22;;;1.08;;
38567;SDS011;24338;48.280;10.970;2023-05-17T07:05:32;5.32;;;1.00;;
38567;SDS011;24338;48.280;10.970;2023-05-17T07:07:59;5.28;;;1.30;;
38567;SDS011;24338;48.280;10.970;2023-05-17T07:10:28;6.30;;;1.00;;
38567;SDS011;24338;48.280;10.970;2023-05-17T07:12:55;5.65;;;0.80;;
38567;SDS011;24338;48.280;10.970;2023-05-17T07:15:22;2.95;;;0.88;;
38567;SDS011;24338;48.280;10.970;2023-05-17T07:17:50;6.32;;;0.88;;
38567;SDS011;24338;48.280;10.970;2023-05-17T07:20:17;5.18;;;0.70;;
38567;SDS011;24338;48.280;10.970;2023-05-17T07:22:44;7.15;;;0.93;;
38567;SDS011;24338;48.280;10.970;2023-05-17T07:25:11;4.32;;;0.90;;
38567;SDS011;24338;48.280;10.970;2023-05-17T07:27:38;6.72;;;0.77;;
38567;SDS011;24338;48.280;10.970;2023-05-17T07:30:04;4.57;;;0.68;;
38567;SDS011;24338;48.280;10.970;2023-05-17T07:32:32;9.50;;;1.10;;
38567;SDS011;24338;48.280;10.970;2023-05-17T07:35:00;3.17;;;0.60;;
38567;SDS011;24338;48.280;10.970;2023-05-17T07:37:28;2.63;;;0.65;;
38567;SDS011;24338;48.280;10.970;2023-05-17T07:39:55;4.93;;;0.90;;
38567;SDS011;24338;48.280;10.970;2023-05-17T07:42:24;8.93;;;1.55;;
38567;SDS011;24338;48.280;10.970;2023-05-17T07:44:51;5.60;;;0.75;;
38567;SDS011;24338;48.280;10.970;2023-05-17T07:47:18;5.78;;;1.35;;
38567;SDS011;24338;48.280;10.970;2023-05-17T07:49:44;8.88;;;1.35;;
38567;SDS011;24338;48.280;10.970;2023-05-17T07:52:11;5.18;;;0.82;;
38567;SDS011;24338;48.280;10.970;2023-05-17T07:54:38;4.13;;;0.77;;
38567;SDS011;24338;48.280;10.970;2023-05-17T07:57:05;5.63;;;1.08;;
38567;SDS011;24338;48.280;10.970;2023-05-17T07:59:32;8.50;;;1.55;;
38567;SDS011;24338;48.280;10.970;2023-05-17T08:01:59;3.88;;;0.82;;
38567;SDS011;24338;48.280;10.970;2023-05-17T08:04:25;4.93;;;1.00;;
38567;SDS011;24338;48.280;10.970;2023-05-17T08:06:52;5.32;;;1.10;;
38567;SDS011;24338;48.280;10.970;2023-05-17T08:09:20;5.85;;;0.90;;
38567;SDS011;24338;48.280;10.970;2023-05-17T08:11:48;5.72;;;1.15;;
38567;SDS011;24338;48.280;10.970;2023-05-17T08:14:15;4.50;;;0.90;;
38567;SDS011;24338;48.280;10.970;2023-05-17T08:16:43;4.57;;;1.23;;
38567;SDS011;24338;48.280;10.970;2023-05-17T08:19:12;4.10;;;1.13;;
38567;SDS011;24338;48.280;10.970;2023-05-17T08:21:40;4.18;;;1.30;;
38567;SDS011;24338;48.280;10.970;2023-05-17T08:24:08;3.80;;;0.82;;
38567;SDS011;24338;48.280;10.970;2023-05-17T08:26:35;6.40;;;0.85;;
38567;SDS011;24338;48.280;10.970;2023-05-17T08:29:03;5.38;;;0.90;;
38567;SDS011;24338;48.280;10.970;2023-05-17T08:31:30;10.50;;;1.73;;
38567;SDS011;24338;48.280;10.970;2023-05-17T08:34:00;5.43;;;1.17;;
38567;SDS011;24338;48.280;10.970;2023-05-17T08:36:27;4.32;;;1.05;;
38567;SDS011;24338;48.280;10.970;2023-05-17T08:38:53;7.20;;;1.95;;
38567;SDS011;24338;48.280;10.970;2023-05-17T08:41:21;6.00;;;1.20;;
38567;SDS011;24338;48.280;10.970;2023-05-17T08:43:48;3.05;;;1.00;;
38567;SDS011;24338;48.280;10.970;2023-05-17T08:46:17;4.28;;;1.40;;
38567;SDS011;24338;48.280;10.970;2023-05-17T08:48:48;5.93;;;1.55;;
38567;SDS011;24338;48.280;10.970;2023-05-17T08:51:18;4.18;;;1.25;;
38567;SDS011;24338;48.280;10.970;2023-05-17T08:53:46;4.10;;;0.75;;
38567;SDS011;24338;48.280;10.970;2023-05-17T08:56:15;5.30;;;1.17;;
38567;SDS011;24338;48.280;10.970;2023-05-17T08:58:46;4.82;;;1.85;;
38567;SDS011;24338;48.280;10.970;2023-05-17T09:01:23;6.55;;;1.20;;
38567;SDS011;24338;48.280;10.970;2023-05-17T09:03:53;8.57;;;1.20;;
38567;SDS011;24338;48.280;10.970;2023-05-17T09:06:20;3.22;;;1.00;;
38567;SDS011;24338;48.280;10.970;2023-05-17T09:08:49;8.07;;;1.60;;
38567;SDS011;24338;48.280;10.970;2023-05-17T09:11:24;6.18;;;0.82;;
38567;SDS011;24338;48.280;10.970;2023-05-17T09:14:01;4.03;;;1.10;;
38567;SDS011;24338;48.280;10.970;2023-05-17T09:16:33;3.90;;;0.77;;
38567;SDS011;24338;48.280;10.970;2023-05-17T09:19:02;4.57;;;0.88;;
38567;SDS011;24338;48.280;10.970;2023-05-17T09:21:31;5.78;;;0.82;;
38567;SDS011;24338;48.280;10.970;2023-05-17T09:23:59;6.80;;;1.02;;
38567;SDS011;24338;48.280;10.970;2023-05-17T09:26:42;3.10;;;0.85;;
38567;SDS011;24338;48.280;10.970;2023-05-17T09:29:11;6.53;;;1.15;;
38567;SDS011;24338;48.280;10.970;2023-05-17T09:31:39;5.50;;;1.52;;
38567;SDS011;24338;48.280;10.970;2023-05-17T09:34:07;6.57;;;1.30;;
38567;SDS011;24338;48.280;10.970;2023-05-17T09:36:35;4.10;;;0.82;;
38567;SDS011;24338;48.280;10.970;2023-05-17T09:39:04;2.35;;;0.68;;
38567;SDS011;24338;48.280;10.970;2023-05-17T09:41:40;3.95;;;0.80;;
38567;SDS011;24338;48.280;10.970;2023-05-17T09:44:10;6.30;;;0.95;;
38567;SDS011;24338;48.280;10.970;2023-05-17T09:46:41;4.35;;;1.30;;
38567;SDS011;24338;48.280;10.970;2023-05-17T09:49:11;3.50;;;1.00;;
38567;SDS011;24338;48.280;10.970;2023-05-17T09:51:42;4.32;;;1.10;;
38567;SDS011;24338;48.280;10.970;2023-05-17T09:54:10;5.20;;;1.10;;
38567;SDS011;24338;48.280;10.970;2023-05-17T09:56:38;3.97;;;1.00;;
38567;SDS011;24338;48.280;10.970;2023-05-17T09:59:13;5.18;;;1.00;;
38567;SDS011;24338;48.280;10.970;2023-05-17T10:01:42;6.60;;;1.15;;
38567;SDS011;24338;48.280;10.970;2023-05-17T10:04:11;6.75;;;1.20;;
38567;SDS011;24338;48.280;10.970;2023-05-17T10:06:39;3.75;;;0.93;;
38567;SDS011;24338;48.280;10.970;2023-05-17T10:09:13;4.30;;;1.00;;
38567;SDS011;24338;48.280;10.970;2023-05-17T10:11:42;2.70;;;0.75;;
38567;SDS011;24338;48.280;10.970;2023-05-17T10:16:44;7.68;;;1.65;;
38567;SDS011;24338;48.280;10.970;2023-05-17T10:19:11;6.32;;;1.25;;
38567;SDS011;24338;48.280;10.970;2023-05-17T10:21:39;8.93;;;1.60;;
38567;SDS011;24338;48.280;10.970;2023-05-17T10:24:08;5.65;;;1.65;;
38567;SDS011;24338;48.280;10.970;2023-05-17T10:26:36;4.65;;;1.20;;
38567;SDS011;24338;48.280;10.970;2023-05-17T10:29:03;4.75;;;1.15;;
38567;SDS011;24338;48.280;10.970;2023-05-17T10:31:32;6.78;;;1.02;;
38567;SDS011;24338;48.280;10.970;2023-05-17T10:34:00;3.75;;;1.15;;
38567;SDS011;24338;48.280;10.970;2023-05-17T10:36:28;4.97;;;1.58;;
38567;SDS011;24338;48.280;10.970;2023-05-17T10:38:55;3.65;;;1.23;;
38567;SDS011;24338;48.280;10.970;2023-05-17T10:41:25;5.47;;;1.00;;
38567;SDS011;24338;48.280;10.970;2023-05-17T10:43:56;2.85;;;0.75;;
38567;SDS011;24338;48.280;10.970;2023-05-17T10:46:24;5.10;;;1.10;;
38567;SDS011;24338;48.280;10.970;2023-05-17T10:48:52;5.32;;;0.98;;
38567;SDS011;24338;48.280;10.970;2023-05-17T10:51:24;4.50;;;1.25;;
38567;SDS011;24338;48.280;10.970;2023-05-17T10:57:17;4.47;;;0.88;;
38567;SDS011;24338;48.280;10.970;2023-05-17T10:59:33;5.32;;;1.10;;
38567;SDS011;24338;48.280;10.970;2023-05-17T11:02:07;6.47;;;1.25;;
38567;SDS011;24338;48.280;10.970;2023-05-17T11:09:42;3.58;;;1.10;;
38567;SDS011;24338;48.280;10.970;2023-05-17T11:12:11;5.35;;;1.17;;
38567;SDS011;24338;48.280;10.970;2023-05-17T11:14:52;3.20;;;1.00;;
38567;SDS011;24338;48.280;10.970;2023-05-17T11:17:23;5.22;;;1.42;;
38567;SDS011;24338;48.280;10.970;2023-05-17T11:22:25;4.32;;;0.82;;
38567;SDS011;24338;48.280;10.970;2023-05-17T11:24:56;4.50;;;1.52;;
38567;SDS011;24338;48.280;10.970;2023-05-17T11:27:52;4.53;;;1.20;;
38567;SDS011;24338;48.280;10.970;2023-05-17T11:30:26;3.70;;;1.35;;
38567;SDS011;24338;48.280;10.970;2023-05-17T11:35:38;3.97;;;1.35;;
38567;SDS011;24338;48.280;10.970;2023-05-17T11:40:46;5.82;;;1.35;;
38567;SDS011;24338;48.280;10.970;2023-05-17T11:43:21;3.88;;;1.10;;
38567;SDS011;24338;48.280;10.970;2023-05-17T11:45:53;6.95;;;1.60;;
38567;SDS011;24338;48.280;10.970;2023-05-17T11:48:26;5.10;;;1.45;;
38567;SDS011;24338;48.280;10.970;2023-05-17T11:50:56;4.20;;;1.20;;
38567;SDS011;24338;48.280;10.970;2023-05-17T11:53:25;4.03;;;1.20;;
38567;SDS011;24338;48.280;10.970;2023-05-17T11:55:53;4.07;;;0.90;;
38567;SDS011;24338;48.280;10.970;2023-05-17T11:58:25;4.10;;;1.30;;
38567;SDS011;24338;48.280;10.970;2023-05-17T12:00:53;5.35;;;1.17;;
38567;SDS011;24338;48.280;10.970;2023-05-17T12:06:07;7.60;;;1.17;;
38567;SDS011;24338;48.280;10.970;2023-05-17T12:08:37;5.55;;;1.15;;
38567;SDS011;24338;48.280;10.970;2023-05-17T12:11:05;3.60;;;1.20;;
38567;SDS011;24338;48.280;10.970;2023-05-17T12:13:33;4.35;;;1.38;;
38567;SDS011;24338;48.280;10.970;2023-05-17T12:16:03;5.25;;;1.40;;
38567;SDS011;24338;48.280;10.970;2023-05-17T12:21:02;5.25;;;1.30;;
38567;SDS011;24338;48.280;10.970;2023-05-17T12:26:03;9.07;;;1.30;;
38567;SDS011;24338;48.280;10.970;2023-05-17T12:31:26;3.20;;;1.05;;
38567;SDS011;24338;48.280;10.970;2023-05-17T12:33:58;5.35;;;1.52;;
38567;SDS011;24338;48.280;10.970;2023-05-17T12:36:28;3.72;;;1.30;;
38567;SDS011;24338;48.280;10.970;2023-05-17T12:38:56;3.47;;;1.45;;
38567;SDS011;24338;48.280;10.970;2023-05-17T12:41:25;4.25;;;1.48;;
38567;SDS011;24338;48.280;10.970;2023-05-17T12:43:53;3.35;;;1.38;;
38567;SDS011;24338;48.280;10.970;2023-05-17T12:46:38;5.43;;;1.67;;
38567;SDS011;24338;48.280;10.970;2023-05-17T12:49:06;8.32;;;1.40;;
38567;SDS011;24338;48.280;10.970;2023-05-17T12:51:40;5.60;;;1.73;;
38567;SDS011;24338;48.280;10.970;2023-05-17T12:54:11;4.32;;;1.35;;
38567;SDS011;24338;48.280;10.970;2023-05-17T12:56:52;6.28;;;1.60;;
38567;SDS011;24338;48.280;10.970;2023-05-17T12:59:20;6.05;;;1.50;;
38567;SDS011;24338;48.280;10.970;2023-05-17T13:01:51;5.22;;;1.60;;
38567;SDS011;24338;48.280;10.970;2023-05-17T13:04:29;4.30;;;1.52;;
38567;SDS011;24338;48.280;10.970;2023-05-17T13:06:58;5.22;;;1.40;;
38567;SDS011;24338;48.280;10.970;2023-05-17T13:09:27;4.15;;;1.38;;
38567;SDS011;24338;48.280;10.970;2023-05-17T13:11:57;4.15;;;1.27;;
38567;SDS011;24338;48.280;10.970;2023-05-17T13:14:34;3.83;;;1.15;;
38567;SDS011;24338;48.280;10.970;2023-05-17T13:19:30;4.47;;;1.63;;
38567;SDS011;24338;48.280;10.970;2023-05-17T13:21:57;4.78;;;1.35;;
38567;SDS011;24338;48.280;10.970;2023-05-17T13:24:25;3.90;;;1.48;;
38567;SDS011;24338;48.280;10.970;2023-05-17T13:26:53;6.10;;;1.17;;
38567;SDS011;24338;48.280;10.970;2023-05-17T13:29:20;5.15;;;1.60;;
38567;SDS011;24338;48.280;10.970;2023-05-17T13:32:04;4.95;;;1.80;;
38567;SDS011;24338;48.280;10.970;2023-05-17T13:34:32;5.05;;;1.60;;
38567;SDS011;24338;48.280;10.970;2023-05-17T13:36:58;4.18;;;1.50;;
38567;SDS011;24338;48.280;10.970;2023-05-17T13:39:25;4.70;;;1.55;;
38567;SDS011;24338;48.280;10.970;2023-05-17T13:41:52;6.13;;;1.88;;
38567;SDS011;24338;48.280;10.970;2023-05-17T13:44:19;4.80;;;1.63;;
38567;SDS011;24338;48.280;10.970;2023-05-17T13:46:46;5.53;;;1.55;;
38567;SDS011;24338;48.280;10.970;2023-05-17T13:49:13;5.63;;;2.33;;
38567;SDS011;24338;48.280;10.970;2023-05-17T13:51:40;4.22;;;1.45;;
38567;SDS011;24338;48.280;10.970;2023-05-17T13:54:08;4.55;;;1.40;;
38567;SDS011;24338;48.280;10.970;2023-05-17T13:56:38;6.80;;;1.77;;
38567;SDS011;24338;48.280;10.970;2023-05-17T13:59:05;4.75;;;1.80;;
38567;SDS011;24338;48.280;10.970;2023-05-17T14:01:32;3.40;;;1.20;;
38567;SDS011;24338;48.280;10.970;2023-05-17T14:03:58;8.40;;;2.63;;
38567;SDS011;24338;48.280;10.970;2023-05-17T14:06:26;4.38;;;1.27;;
38567;SDS011;24338;48.280;10.970;2023-05-17T14:08:53;5.03;;;1.67;;
38567;SDS011;24338;48.280;10.970;2023-05-17T14:11:22;5.53;;;2.28;;
38567;SDS011;24338;48.280;10.970;2023-05-17T14:13:49;6.57;;;1.98;;
38567;SDS011;24338;48.280;10.970;2023-05-17T14:16:16;8.25;;;2.05;;
38567;SDS011;24338;48.280;10.970;2023-05-17T14:18:43;6.00;;;1.98;;
38567;SDS011;24338;48.280;10.970;2023-05-17T14:21:11;3.95;;;1.52;;
38567;SDS011;24338;48.280;10.970;2023-05-17T14:23:38;6.45;;;1.60;;
38567;SDS011;24338;48.280;10.970;2023-05-17T14:26:07;6.43;;;2.00;;
38567;SDS011;24338;48.280;10.970;2023-05-17T14:28:35;15.25;;;3.30;;
38567;SDS011;24338;48.280;10.970;2023-05-17T14:31:08;10.68;;;3.55;;
38567;SDS011;24338;48.280;10.970;2023-05-17T14:33:35;9.65;;;3.08;;
38567;SDS011;24338;48.280;10.970;2023-05-17T14:36:02;6.85;;;2.03;;
38567;SDS011;24338;48.280;10.970;2023-05-17T14:38:31;16.77;;;5.75;;
38567;SDS011;24338;48.280;10.970;2023-05-17T14:40:58;18.80;;;6.35;;
38567;SDS011;24338;48.280;10.970;2023-05-17T14:43:31;6.85;;;2.47;;
38567;SDS011;24338;48.280;10.970;2023-05-17T14:46:04;6.00;;;1.92;;
38567;SDS011;24338;48.280;10.970;2023-05-17T14:48:30;4.63;;;1.80;;
38567;SDS011;24338;48.280;10.970;2023-05-17T14:50:59;6.82;;;1.98;;
38567;SDS011;24338;48.280;10.970;2023-05-17T14:53:28;5.20;;;2.03;;
38567;SDS011;24338;48.280;10.970;2023-05-17T14:55:56;4.60;;;1.88;;
38567;SDS011;24338;48.280;10.970;2023-05-17T14:58:24;6.45;;;2.25;;
38567;SDS011;24338;48.280;10.970;2023-05-17T15:00:54;8.05;;;2.70;;
38567;SDS011;24338;48.280;10.970;2023-05-17T15:03:31;7.28;;;2.13;;
38567;SDS011;24338;48.280;10.970;2023-05-17T15:05:59;4.85;;;1.73;;
38567;SDS011;24338;48.280;10.970;2023-05-17T15:08:32;5.13;;;2.08;;
38567;SDS011;24338;48.280;10.970;2023-05-17T15:10:59;5.70;;;2.22;;
38567;SDS011;24338;48.280;10.970;2023-05-17T15:13:26;7.07;;;2.22;;
38567;SDS011;24338;48.280;10.970;2023-05-17T15:15:53;5.80;;;2.38;;
38567;SDS011;24338;48.280;10.970;2023-05-17T15:18:21;6.88;;;2.08;;
38567;SDS011;24338;48.280;10.970;2023-05-17T15:20:48;5.20;;;2.17;;
38567;SDS011;24338;48.280;10.970;2023-05-17T15:23:15;6.00;;;2.17;;
38567;SDS011;24338;48.280;10.970;2023-05-17T15:25:42;6.32;;;2.90;;
38567;SDS011;24338;48.280;10.970;2023-05-17T15:28:09;6.32;;;2.78;;